Time;durP1;ratioP1;P1;durP2;ratioP2;P2;SDS_P1;SDS_P2;PMS_P1;PMS_P2;Temp;Humidity;BMP_temperature;BMP_pressure;BME280_temperature;BME280_humidity;BME280_pressure;Samples;Min_cycle;Max_cycle;Signal;HPM_P1;HPM_P2
2022/03/18 00:01:37;;;;;;;72.63;50.20;;;;;;;23.03;100.00;98044.41;5030088;28;20057;-71
2022/03/18 00:04:12;;;;;;;85.25;53.55;;;;;;;22.91;100.00;98040.25;5021087;28;20739;-72
2022/03/18 00:07:08;;;;;;;87.95;52.83;;;;;;;23.01;100.00;98048.97;5031772;28;20081;-72
2022/03/18 00:09:44;;;;;;;88.40;54.75;;;;;;;23.07;100.00;98045.78;5027267;28;20053;-72
2022/03/18 00:12:33;;;;;;;87.38;55.92;;;;;;;23.09;100.00;98051.72;5027624;28;20041;-73
2022/03/18 00:15:17;;;;;;;94.60;57.08;;;;;;;23.04;100.00;98059.22;5020664;28;20049;-72
2022/03/18 00:18:15;;;;;;;80.68;53.50;;;;;;;23.03;100.00;98062.81;5027576;28;20081;-71
2022/03/18 00:20:50;;;;;;;96.93;58.50;;;;;;;23.01;100.00;98070.00;5027621;28;20088;-73
2022/03/18 00:23:46;;;;;;;99.32;58.90;;;;;;;22.98;100.00;98070.28;5012580;28;20377;-72
2022/03/18 00:26:21;;;;;;;86.88;57.45;;;;;;;22.90;100.00;98078.03;5010141;28;20115;-73
2022/03/18 00:29:10;;;;;;;90.20;58.45;;;;;;;22.94;100.00;98079.41;5027408;28;20053;-72
2022/03/18 00:31:53;;;;;;;98.43;58.83;;;;;;;22.95;100.00;98086.31;5029544;28;20140;-73
2022/03/18 00:34:54;;;;;;;93.85;61.33;;;;;;;22.97;100.00;98088.81;5028417;28;20053;-72
2022/03/18 00:37:29;;;;;;;96.22;60.47;;;;;;;22.98;100.00;98080.81;5028936;28;20152;-73
2022/03/18 00:40:23;;;;;;;93.55;62.83;;;;;;;22.98;100.00;98091.31;5034200;28;20117;-73
2022/03/18 00:43:00;;;;;;;90.68;61.75;;;;;;;22.96;100.00;98103.75;5034713;28;20052;-73
2022/03/18 00:45:56;;;;;;;104.03;62.28;;;;;;;23.02;100.00;98102.34;5026790;28;20060;-73
2022/03/18 00:54:46;;;;;;;114.30;70.00;;;;;;;22.93;100.00;98114.53;5032201;28;20057;-73
2022/03/18 00:57:43;;;;;;;113.75;71.70;;;;;;;22.93;100.00;98116.31;5007969;28;20050;-72
2022/03/18 01:00:31;;;;;;;111.60;71.82;;;;;;;23.01;100.00;98121.72;5012102;28;20064;-72
2022/03/18 01:03:21;;;;;;;112.68;76.00;;;;;;;22.93;100.00;98118.94;5019498;28;20084;-72
2022/03/18 01:06:03;;;;;;;128.13;76.15;;;;;;;22.95;100.00;98124.91;4987739;28;20189;-73
2022/03/18 01:08:52;;;;;;;117.63;77.25;;;;;;;22.97;100.00;98126.44;4987074;28;20117;-73
2022/03/18 01:11:34;;;;;;;121.50;81.07;;;;;;;22.94;100.00;98129.31;4986767;28;20153;-73
2022/03/18 01:14:22;;;;;;;128.48;82.78;;;;;;;22.95;100.00;98133.59;4986882;28;20054;-74
2022/03/18 01:17:04;;;;;;;136.43;85.53;;;;;;;22.95;100.00;98138.88;4987386;28;20050;-73
2022/03/18 01:19:53;;;;;;;140.32;89.72;;;;;;;22.89;100.00;98142.03;4987666;28;20077;-72
2022/03/18 01:22:35;;;;;;;152.35;89.88;;;;;;;22.90;100.00;98141.09;4985773;28;20050;-72
2022/03/18 01:25:24;;;;;;;143.95;91.00;;;;;;;22.90;100.00;98141.09;4987026;28;20098;-73
2022/03/18 01:28:06;;;;;;;145.52;92.07;;;;;;;22.90;100.00;98146.34;4987343;28;20053;-72
2022/03/18 01:30:55;;;;;;;149.68;91.55;;;;;;;22.82;100.00;98148.81;5005712;28;20175;-72
2022/03/18 01:33:38;;;;;;;143.95;92.55;;;;;;;22.92;100.00;98154.06;5007456;28;20046;-73
2022/03/18 01:36:28;;;;;;;146.20;91.05;;;;;;;22.87;100.00;98143.97;5011134;28;20170;-72
2022/03/18 01:39:12;;;;;;;145.77;94.03;;;;;;;22.81;100.00;98140.09;4991388;28;20170;-72
2022/03/18 01:42:01;;;;;;;147.73;94.68;;;;;;;22.76;100.00;98138.81;5006365;28;20053;-72
2022/03/18 01:44:46;;;;;;;152.45;97.30;;;;;;;22.77;100.00;98143.13;4985665;28;20062;-73
2022/03/18 01:47:42;;;;;;;155.05;97.85;;;;;;;22.82;100.00;98144.41;5000922;28;20100;-73
2022/03/18 01:50:25;;;;;;;155.20;98.13;;;;;;;22.70;100.00;98144.59;4999939;28;20136;-72
2022/03/18 01:53:16;;;;;;;168.90;102.32;;;;;;;22.71;100.00;98146.25;4992469;28;20058;-72
2022/03/18 01:55:58;;;;;;;163.32;99.93;;;;;;;22.79;100.00;98159.56;5006591;28;20061;-72
2022/03/18 01:58:53;;;;;;;159.10;101.50;;;;;;;22.94;100.00;98163.47;5002583;28;20115;-72
2022/03/18 02:01:41;;;;;;;168.48;104.90;;;;;;;23.01;100.00;98167.22;5034384;28;20028;-72
2022/03/18 02:04:30;;;;;;;183.25;107.60;;;;;;;22.92;100.00;98172.44;5045873;28;20195;-71
2022/03/18 02:07:13;;;;;;;175.50;108.70;;;;;;;22.92;100.00;98175.06;5029366;28;20056;-72
2022/03/18 02:10:02;;;;;;;188.68;112.53;;;;;;;22.80;100.00;98174.38;5046100;28;20045;-71
2022/03/18 02:12:44;;;;;;;191.85;115.63;;;;;;;22.90;100.00;98177.88;5045111;28;20061;-71
2022/03/18 02:15:34;;;;;;;197.60;110.25;;;;;;;22.80;100.00;98187.50;5044883;28;20045;-73
2022/03/18 02:18:16;;;;;;;187.23;109.32;;;;;;;22.78;100.00;98194.69;5045550;28;20049;-73
2022/03/18 02:21:06;;;;;;;188.05;110.00;;;;;;;22.72;100.00;98195.19;5029788;28;20053;-73
2022/03/18 02:23:49;;;;;;;181.80;107.10;;;;;;;22.60;100.00;98209.38;5039178;28;20112;-74
2022/03/18 02:26:38;;;;;;;187.10;107.28;;;;;;;22.63;100.00;98209.13;5035369;28;20041;-72
2022/03/18 02:29:24;;;;;;;180.65;106.32;;;;;;;22.74;100.00;98220.41;5015632;28;20045;-72
2022/03/18 02:32:14;;;;;;;189.15;109.30;;;;;;;22.67;100.00;98223.66;5034506;28;20123;-72
2022/03/18 02:34:56;;;;;;;188.73;107.97;;;;;;;22.57;100.00;98223.63;5036438;28;20077;-72
2022/03/18 02:37:45;;;;;;;185.15;106.10;;;;;;;22.79;100.00;98230.50;5029127;28;20169;-73
2022/03/18 02:40:28;;;;;;;180.68;106.28;;;;;;;22.71;100.00;98231.13;5025301;28;20049;-74
2022/03/18 02:43:17;;;;;;;175.48;104.32;;;;;;;22.98;100.00;98242.88;5029480;28;20541;-74
2022/03/18 02:45:59;;;;;;;176.90;105.72;;;;;;;23.08;100.00;98241.91;5029196;28;20056;-73
2022/03/18 02:48:49;;;;;;;181.35;107.28;;;;;;;23.06;100.00;98249.13;5029400;28;20748;-74
2022/03/18 02:51:32;;;;;;;175.95;102.72;;;;;;;23.35;100.00;98253.59;5008515;28;20523;-73
2022/03/18 02:54:20;;;;;;;174.88;104.07;;;;;;;23.56;100.00;98254.31;5036430;28;20079;-74
2022/03/18 02:57:02;;;;;;;167.77;103.45;;;;;;;23.60;100.00;98260.97;5028469;28;20046;-73
2022/03/18 02:59:58;;;;;;;154.50;101.05;;;;;;;23.74;100.00;98262.34;5037000;28;20053;-74
2022/03/18 03:02:34;;;;;;;171.20;102.90;;;;;;;23.83;100.00;98264.16;5028539;28;20416;-73
2022/03/18 03:08:22;;;;;;;153.05;98.97;;;;;;;24.09;100.00;98273.13;5011222;28;20362;-74
2022/03/18 03:11:17;;;;;;;150.52;100.57;;;;;;;24.44;100.00;98272.53;5009791;28;20165;-74
2022/03/18 03:13:53;;;;;;;158.00;99.13;;;;;;;24.53;100.00;98282.19;5028081;28;20115;-73
2022/03/18 03:16:42;;;;;;;161.55;100.13;;;;;;;24.62;100.00;98283.16;4997956;28;20385;-74
2022/03/18 03:19:24;;;;;;;159.67;100.10;;;;;;;24.93;100.00;98278.47;5031389;28;20481;-74
2022/03/18 03:22:19;;;;;;;157.05;98.82;;;;;;;25.17;100.00;98278.75;5010164;28;20054;-71
2022/03/18 03:24:56;;;;;;;140.88;94.53;;;;;;;25.46;100.00;98287.31;5022998;28;20356;-74
2022/03/18 03:27:52;;;;;;;142.75;94.75;;;;;;;25.59;100.00;98283.53;5015541;28;20054;-74
2022/03/18 03:30:27;;;;;;;141.38;94.43;;;;;;;25.17;100.00;98286.69;5022229;28;20063;-74
2022/03/18 03:33:26;;;;;;;143.85;97.00;;;;;;;25.60;100.00;98282.56;5021352;28;20046;-73
2022/03/18 03:36:01;;;;;;;134.65;94.43;;;;;;;25.55;100.00;98289.06;5037710;28;20049;-72
2022/03/18 03:38:51;;;;;;;139.52;94.60;;;;;;;25.84;100.00;98291.53;5030517;28;20496;-73
2022/03/18 03:41:40;;;;;;;129.55;90.47;;;;;;;25.79;100.00;98298.22;5034074;28;20057;-73
2022/03/18 03:44:29;;;;;;;129.57;92.25;;;;;;;26.21;100.00;98295.78;5026520;28;20041;-73
2022/03/18 03:47:10;;;;;;;131.48;89.68;;;;;;;26.20;100.00;98302.88;5046261;28;20049;-73
2022/03/18 03:50:05;;;;;;;137.05;90.40;;;;;;;26.42;100.00;98298.13;5008352;28;20057;-74
2022/03/18 03:52:40;;;;;;;137.75;86.13;;;;;;;26.66;100.00;98300.88;5008965;28;20072;-75
2022/03/18 03:55:39;;;;;;;123.75;84.28;;;;;;;27.10;100.00;98300.81;5033859;28;20488;-73
2022/03/18 03:58:27;;;;;;;121.15;81.10;;;;;;;27.09;100.00;98304.44;5046557;28;20067;-73
2022/03/18 04:01:22;;;;;;;117.05;80.18;;;;;;;27.09;100.00;98304.44;5017372;28;20049;-73
2022/03/18 04:03:58;;;;;;;123.72;79.38;;;;;;;27.39;100.00;98311.81;5017519;28;20049;-74
2022/03/18 04:06:53;;;;;;;115.20;75.30;;;;;;;27.42;100.00;98312.31;5020089;28;20045;-73
2022/03/18 04:09:29;;;;;;;109.20;74.57;;;;;;;27.99;100.00;98307.16;5017654;28;20076;-74
2022/03/18 04:12:25;;;;;;;112.13;75.70;;;;;;;28.07;100.00;98317.75;5012919;28;20146;-70
2022/03/18 04:15:05;;;;;;;116.70;72.88;;;;;;;28.18;100.00;98313.94;5030047;28;20060;-69
2022/03/18 04:18:01;;;;;;;102.72;69.80;;;;;;;28.45;100.00;98318.91;5026421;28;20355;-70
2022/03/18 04:20:36;;;;;;;108.63;72.38;;;;;;;28.72;100.00;98319.53;5026749;28;20128;-71
2022/03/18 04:23:31;;;;;;;111.05;71.07;;;;;;;28.72;100.00;98323.00;5026436;28;20193;-71
2022/03/18 04:26:07;;;;;;;111.05;68.50;;;;;;;29.09;100.00;98330.38;5033314;28;20045;-70
2022/03/18 04:28:55;;;;;;;109.07;68.68;;;;;;;29.15;100.00;98324.38;5035589;28;20056;-73
2022/03/18 04:31:43;;;;;;;96.75;67.80;;;;;;;29.37;100.00;98330.81;5004012;28;20042;-69
2022/03/18 04:34:32;;;;;;;101.45;68.22;;;;;;;29.44;100.00;98330.94;5024539;28;20053;-72
2022/03/18 04:37:14;;;;;;;105.18;67.75;;;;;;;29.71;100.00;98330.41;5034320;28;20049;-71
2022/03/18 04:40:10;;;;;;;95.15;66.30;;;;;;;29.87;100.00;98340.94;5021405;28;20500;-71
2022/03/18 04:42:47;;;;;;;87.97;65.75;;;;;;;29.94;100.00;98335.78;5024070;28;20061;-72
2022/03/18 04:45:44;;;;;;;100.38;67.80;;;;;;;30.04;97.99;98333.72;5010563;28;20065;-71
2022/03/18 04:48:20;;;;;;;105.25;67.75;;;;;;;29.90;100.00;98334.47;5026447;28;20086;-71
2022/03/18 04:51:15;;;;;;;100.90;67.45;;;;;;;30.36;98.89;98343.25;5008637;28;20115;-71
2022/03/18 04:53:50;;;;;;;110.75;68.97;;;;;;;29.95;100.00;98332.94;5035093;28;20056;-68
2022/03/18 04:59:56;;;;;;;99.78;69.07;;;;;;;30.72;96.07;98328.31;5029342;28;20049;-70
2022/03/18 05:02:50;;;;;;;91.00;64.30;;;;;;;30.19;94.86;98331.94;5024228;28;20041;-71
2022/03/18 05:05:26;;;;;;;90.72;65.72;;;;;;;30.66;96.73;98331.69;5026600;28;20052;-71
2022/03/18 05:08:22;;;;;;;101.25;66.68;;;;;;;30.33;94.83;98325.03;5025773;28;20045;-71
2022/03/18 05:10:57;;;;;;;97.70;64.50;;;;;;;30.43;94.54;98323.75;5026438;28;20060;-72
2022/03/18 05:13:52;;;;;;;95.63;65.30;;;;;;;30.37;92.52;98326.28;5030423;28;20041;-72
2022/03/18 05:16:28;;;;;;;94.82;65.18;;;;;;;30.55;91.61;98321.50;5026124;28;20151;-72
2022/03/18 05:19:23;;;;;;;103.95;66.72;;;;;;;30.44;91.55;98336.03;5028188;28;20053;-69
2022/03/18 05:21:59;;;;;;;96.05;65.78;;;;;;;30.54;94.33;98330.50;4993508;28;20048;-70
2022/03/18 05:24:53;;;;;;;92.40;63.00;;;;;;;30.83;91.83;98336.84;5030758;28;20053;-71
2022/03/18 05:27:29;;;;;;;95.43;63.15;;;;;;;30.59;89.61;98341.41;5024145;28;20053;-70
2022/03/18 05:30:24;;;;;;;84.28;62.85;;;;;;;30.71;89.17;98333.81;5014267;28;20102;-72
2022/03/18 05:33:01;;;;;;;91.15;63.30;;;;;;;30.97;90.10;98334.16;5027457;28;20053;-72
2022/03/18 05:35:50;;;;;;;100.00;67.22;;;;;;;31.05;89.40;98331.41;5025607;28;20091;-71
2022/03/18 05:38:39;;;;;;;101.25;65.68;;;;;;;31.00;86.99;98327.66;5022491;28;20799;-69
2022/03/18 05:41:34;;;;;;;91.95;64.85;;;;;;;31.05;91.16;98330.63;5023162;28;20053;-69
2022/03/18 05:44:10;;;;;;;94.75;65.93;;;;;;;30.91;90.20;98328.75;5024082;28;20146;-66
2022/03/18 05:46:59;;;;;;;89.43;64.57;;;;;;;30.88;90.92;98326.50;5030120;28;20100;-68
2022/03/18 05:49:41;;;;;;;95.90;65.93;;;;;;;31.16;89.73;98332.81;5027522;28;20053;-68
2022/03/18 05:52:30;;;;;;;97.28;64.60;;;;;;;31.20;89.83;98328.81;5030319;28;20157;-68
2022/03/18 05:55:20;;;;;;;88.90;64.53;;;;;;;31.44;90.91;98322.34;5025335;28;20072;-69
2022/03/18 05:58:01;;;;;;;93.93;65.47;;;;;;;30.91;91.02;98320.78;5025227;28;20073;-68
2022/03/18 06:00:56;;;;;;;92.15;66.50;;;;;;;30.92;85.57;98319.78;5018810;28;20046;-70
2022/03/18 06:03:33;;;;;;;100.93;65.13;;;;;;;31.03;84.62;98322.00;5006594;28;20132;-68
2022/03/18 06:06:27;;;;;;;;;;;;;;;31.18;86.01;98321.00;5024336;28;20365;-70
2022/03/18 06:12:10;;;;;;;91.53;63.67;;;;;;;31.34;81.84;98309.31;5006943;28;20045;-67
2022/03/18 06:14:52;;;;;;;93.13;62.67;;;;;;;31.76;81.44;98305.09;5022997;28;20058;-69
2022/03/18 06:17:41;;;;;;;92.88;62.42;;;;;;;31.93;80.32;98301.97;5023199;28;20111;-69
2022/03/18 06:20:30;;;;;;;92.57;62.63;;;;;;;31.67;80.67;98300.88;5024043;28;20052;-69
2022/03/18 06:23:12;;;;;;;95.43;61.35;;;;;;;31.67;80.59;98298.22;5021188;28;20048;-70
2022/03/18 06:26:01;;;;;;;91.18;61.10;;;;;;;31.66;80.89;98296.56;5023732;28;20046;-68
2022/03/18 06:28:43;;;;;;;107.72;61.85;;;;;;;32.02;82.69;98297.31;5023776;28;20053;-69
2022/03/18 06:31:33;;;;;;;94.43;63.03;;;;;;;31.89;78.32;98299.88;5025540;28;20054;-68
2022/03/18 06:34:15;;;;;;;80.78;58.08;;;;;;;32.41;78.12;98294.19;5021716;28;20115;-69
2022/03/18 06:37:04;;;;;;;88.97;58.40;;;;;;;32.00;76.27;98296.72;5024515;28;20080;-67
2022/03/18 06:39:47;;;;;;;89.88;58.38;;;;;;;32.18;77.65;98291.75;5024594;28;20054;-67
2022/03/18 06:42:36;;;;;;;96.80;61.70;;;;;;;31.95;80.83;98285.78;5022500;28;20045;-68
2022/03/18 06:45:26;;;;;;;86.75;61.08;;;;;;;31.87;80.59;98284.06;5022561;28;20053;-68
2022/03/18 06:48:15;;;;;;;95.93;60.33;;;;;;;31.41;78.80;98285.41;5024956;28;20144;-66
2022/03/18 06:51:00;;;;;;;86.35;57.95;;;;;;;31.42;76.60;98287.88;5024682;28;20057;-68
2022/03/18 06:53:50;;;;;;;83.15;58.72;;;;;;;31.77;77.84;98272.91;5021152;28;20739;-67
2022/03/18 06:56:39;;;;;;;81.90;58.60;;;;;;;32.05;77.41;98274.78;5028105;28;20122;-67
2022/03/18 06:59:35;;;;;;;83.40;58.22;;;;;;;31.97;75.99;98281.09;5025699;28;20045;-65
2022/03/18 07:02:26;;;;;;;76.70;58.67;;;;;;;31.73;85.73;98276.16;5028363;28;20052;-65
2022/03/18 07:05:15;;;;;;;84.13;60.88;;;;;;;30.57;94.55;98268.94;5030600;28;20049;-65
2022/03/18 07:08:04;;;;;;;89.18;62.85;;;;;;;30.03;100.00;98269.09;5015466;28;20516;-64
2022/03/18 07:10:53;;;;;;;89.25;61.38;;;;;;;29.48;100.00;98260.53;5033217;28;20234;-64
2022/03/18 07:13:35;;;;;;;83.15;59.45;;;;;;;29.23;100.00;98259.81;5031414;28;20056;-64
2022/03/18 07:19:25;;;;;;;78.57;59.92;;;;;;;28.87;100.00;98247.06;5030058;28;20069;-66
2022/03/18 07:22:15;;;;;;;82.20;61.67;;;;;;;28.72;100.00;98245.28;5030530;28;20409;-64
2022/03/18 07:24:57;;;;;;;81.38;59.70;;;;;;;29.27;100.00;98238.09;5028149;28;20061;-64
2022/03/18 07:27:46;;;;;;;92.13;66.97;;;;;;;29.67;100.00;98233.53;5027649;28;20053;-64
2022/03/18 07:30:43;;;;;;;88.63;62.50;;;;;;;30.05;98.12;98237.88;5027602;28;20068;-65
2022/03/18 07:33:18;;;;;;;83.90;55.95;;;;;;;30.43;85.99;98245.81;5028163;28;20049;-64
2022/03/18 07:36:07;;;;;;;84.25;58.60;;;;;;;30.62;96.01;98237.31;5029916;28;20088;-64
2022/03/18 07:38:49;;;;;;;88.45;60.03;;;;;;;30.73;96.36;98226.19;5036806;28;20049;-65
2022/03/18 07:41:44;;;;;;;78.45;57.35;;;;;;;30.67;90.55;98234.09;5030248;28;20053;-64
2022/03/18 07:44:19;;;;;;;81.80;57.53;;;;;;;30.73;96.22;98226.19;5032643;28;20365;-65
2022/03/18 07:47:08;;;;;;;86.57;56.97;;;;;;;30.65;94.11;98218.31;5038532;28;20075;-64
2022/03/18 07:49:50;;;;;;;83.68;58.35;;;;;;;30.47;98.53;98214.38;5041976;28;20080;-65
2022/03/18 07:52:39;;;;;;;81.30;58.40;;;;;;;30.46;97.24;98213.53;5029703;28;20060;-65
2022/03/18 07:55:30;;;;;;;80.82;57.38;;;;;;;30.40;91.06;98204.47;5047510;28;20061;-64
2022/03/18 07:58:12;;;;;;;82.15;59.15;;;;;;;30.33;100.00;98192.88;5033394;28;20144;-64
2022/03/18 08:01:07;;;;;;;75.95;56.42;;;;;;;30.52;100.00;98191.56;5027374;28;20084;-64
2022/03/18 08:03:56;;;;;;;80.20;55.13;;;;;;;30.33;100.00;98184.91;5020294;28;20509;-65
2022/03/18 08:06:45;;;;;;;77.53;56.60;;;;;;;30.25;98.66;98182.34;5019853;28;20128;-65
2022/03/18 08:09:27;;;;;;;80.60;57.80;;;;;;;30.22;92.52;98174.75;5028053;28;20165;-64
2022/03/18 08:12:16;;;;;;;81.53;57.38;;;;;;;30.41;94.52;98173.41;5028904;28;20083;-66
2022/03/18 08:15:01;;;;;;;82.90;58.97;;;;;;;30.40;99.97;98161.09;5030324;28;20084;-65
2022/03/18 08:17:52;;;;;;;75.28;57.40;;;;;;;30.50;96.13;98168.78;5031024;28;20053;-66
2022/03/18 08:20:39;;;;;;;79.40;55.17;;;;;;;30.41;98.29;98160.09;5026078;28;20063;-65
2022/03/18 08:23:29;;;;;;;72.20;54.38;;;;;;;30.35;96.57;98156.31;5029656;28;20080;-65
2022/03/18 08:26:18;;;;;;;73.00;53.17;;;;;;;30.33;93.07;98149.56;5029164;28;20053;-65
2022/03/18 08:29:00;;;;;;;75.60;53.63;;;;;;;30.40;95.85;98135.34;5023565;28;20053;-65
2022/03/18 08:31:49;;;;;;;77.85;57.17;;;;;;;30.24;100.00;98132.06;5035484;28;20056;-65
2022/03/18 08:34:31;;;;;;;78.63;58.00;;;;;;;30.11;100.00;98131.84;5020043;28;20060;-66
2022/03/18 08:37:56;;;;;;;87.25;59.35;;;;;;;30.32;98.25;98126.63;5030649;28;20049;-66
2022/03/18 08:40:37;;;;;;;92.53;62.35;;;;;;;29.97;100.00;98118.38;5036971;28;20068;-66
2022/03/18 08:43:19;;;;;;;79.97;60.15;;;;;;;29.84;100.00;98117.34;5025797;28;20360;-65
2022/03/18 08:46:08;;;;;;;83.60;59.00;;;;;;;29.84;100.00;98120.81;5034508;28;20135;-64
2022/03/18 08:48:50;;;;;;;80.00;57.03;;;;;;;29.88;98.30;98114.13;5029629;28;20069;-64
2022/03/18 08:51:38;;;;;;;71.78;55.30;;;;;;;30.18;93.10;98106.19;5029390;28;20060;-63
2022/03/18 08:54:21;;;;;;;95.82;58.63;;;;;;;30.02;100.00;98096.56;5031534;28;20068;-65
2022/03/18 08:57:10;;;;;;;77.10;58.72;;;;;;;29.97;99.24;98091.00;5026790;28;20056;-66
2022/03/18 08:59:52;;;;;;;82.07;56.42;;;;;;;30.18;91.68;98095.56;5007077;28;20045;-65
2022/03/18 09:02:41;;;;;;;75.13;57.00;;;;;;;30.18;95.00;98085.75;5006765;28;20133;-65
2022/03/18 09:05:36;;;;;;;75.10;55.15;;;;;;;29.98;100.00;98076.69;5006636;28;20576;-64
2022/03/18 09:08:13;;;;;;;75.95;54.15;;;;;;;29.97;100.00;98070.56;5005639;28;20089;-64
2022/03/18 09:11:02;;;;;;;70.65;51.90;;;;;;;29.67;100.00;98066.22;4993798;28;20670;-64
2022/03/18 09:13:44;;;;;;;72.47;50.70;;;;;;;29.50;100.00;98072.69;5003553;28;20038;-64
2022/03/18 09:16:36;;;;;;;64.85;47.75;;;;;;;29.73;95.43;98068.13;5002262;28;20084;-64
2022/03/18 09:19:18;;;;;;;58.95;45.42;;;;;;;29.60;95.68;98063.47;5002089;28;20054;-64
2022/03/18 09:22:16;;;;;;;61.20;46.63;;;;;;;29.63;96.62;98059.59;4981625;28;20058;-64
2022/03/18 09:24:51;;;;;;;67.22;47.90;;;;;;;29.55;100.00;98047.25;4997157;28;20050;-64
2022/03/18 09:27:41;;;;;;;62.28;48.72;;;;;;;29.61;96.33;98053.69;5002818;28;20053;-64
2022/03/18 09:30:23;;;;;;;61.70;47.92;;;;;;;29.40;100.00;98045.56;4998032;28;20050;-64
2022/03/18 09:33:12;;;;;;;68.05;47.97;;;;;;;29.41;100.00;98047.22;4995036;28;20053;-65
2022/03/18 09:36:00;;;;;;;69.70;49.45;;;;;;;29.27;100.00;98039.03;4996827;28;20058;-65
2022/03/18 09:38:56;;;;;;;65.25;47.78;;;;;;;29.22;100.00;98033.41;5003611;28;20045;-65
2022/03/18 09:41:32;;;;;;;68.18;50.03;;;;;;;29.17;100.00;98017.22;4997225;28;20064;-64
2022/03/18 09:44:28;;;;;;;62.10;47.03;;;;;;;29.01;100.00;98014.72;4986973;28;20050;-64
2022/03/18 09:47:06;;;;;;;66.70;46.38;;;;;;;29.25;100.00;98011.84;4996467;28;20084;-64
2022/03/18 09:49:55;;;;;;;63.47;45.38;;;;;;;29.23;100.00;97999.75;4996114;28;20056;-65
2022/03/18 09:52:37;;;;;;;66.15;48.10;;;;;;;29.21;100.00;97993.81;4996720;28;20125;-64
2022/03/18 09:55:30;;;;;;;64.38;48.25;;;;;;;29.14;100.00;97988.38;4994954;28;20386;-65
2022/03/18 09:58:20;;;;;;;72.97;50.78;;;;;;;29.05;100.00;97984.19;5001519;28;20149;-64
2022/03/18 10:01:15;;;;;;;67.90;51.55;;;;;;;28.93;100.00;97982.94;5019288;28;20615;-64
2022/03/18 10:04:13;;;;;;;66.30;50.10;;;;;;;28.84;100.00;97976.06;5007680;28;20069;-64
2022/03/18 10:07:18;;;;;;;68.53;50.63;;;;;;;28.68;100.00;97968.22;5022470;28;20248;-64
2022/03/18 10:10:06;;;;;;;64.68;47.85;;;;;;;28.59;100.00;97967.44;5022707;28;20073;-64
2022/03/18 10:12:57;;;;;;;66.15;47.47;;;;;;;28.50;100.00;97964.03;5023039;28;20049;-64
2022/03/18 10:15:39;;;;;;;66.57;49.10;;;;;;;28.48;100.00;97965.22;5023938;28;20056;-65
2022/03/18 10:18:28;;;;;;;61.65;44.40;;;;;;;28.45;100.00;97962.91;5024364;28;20051;-65
2022/03/18 10:21:16;;;;;;;64.35;46.63;;;;;;;28.41;100.00;97954.50;5024581;28;20037;-63
2022/03/18 10:24:12;;;;;;;61.88;48.97;;;;;;;28.45;100.00;97954.97;5023103;28;20041;-65
2022/03/18 10:27:17;;;;;;;64.40;47.20;;;;;;;28.36;100.00;97951.53;5023220;28;20808;-64
2022/03/18 10:30:08;;;;;;;60.42;43.97;;;;;;;28.26;100.00;97948.28;5022987;28;20037;-64
2022/03/18 10:32:50;;;;;;;59.20;42.50;;;;;;;28.18;100.00;97943.88;5023958;28;20042;-64
2022/03/18 10:38:42;;;;;;;64.75;43.22;;;;;;;28.15;100.00;97943.38;5021348;28;20049;-64
2022/03/18 10:41:31;;;;;;;64.07;45.22;;;;;;;28.20;100.00;97935.75;5009183;28;20049;-65
2022/03/18 10:44:15;;;;;;;64.10;45.58;;;;;;;28.22;100.00;97925.81;5007244;28;20045;-64
2022/03/18 10:47:04;;;;;;;59.72;44.38;;;;;;;28.14;100.00;97937.25;5026128;28;20189;-64
2022/03/18 10:49:46;;;;;;;62.80;42.95;;;;;;;28.07;100.00;97935.47;5026264;28;20049;-64
2022/03/18 10:52:34;;;;;;;59.30;42.45;;;;;;;28.11;100.00;97928.81;5027313;28;20191;-65
2022/03/18 10:55:24;;;;;;;59.05;44.67;;;;;;;28.17;100.00;97925.53;5027497;28;20045;-64
2022/03/18 10:58:20;;;;;;;69.13;49.75;;;;;;;28.21;100.00;97916.22;5026682;28;20556;-65
2022/03/18 11:01:11;;;;;;;72.75;50.15;;;;;;;28.23;100.00;97916.03;5028732;28;20053;-65
2022/03/18 11:04:00;;;;;;;66.07;49.20;;;;;;;28.22;100.00;97912.56;5035044;28;20049;-64
2022/03/18 11:13:01;;;;;;;68.75;49.13;;;;;;;28.01;100.00;97905.22;5034676;28;20056;-64
2022/03/18 11:15:52;;;;;;;70.25;49.00;;;;;;;27.97;100.00;97897.78;5036502;28;20102;-65
2022/03/18 11:18:34;;;;;;;65.38;50.00;;;;;;;27.97;100.00;97892.50;5032334;28;20049;-64
2022/03/18 11:21:35;;;;;;;74.55;50.13;;;;;;;27.94;100.00;97898.13;5028897;28;20064;-65
2022/03/18 11:24:29;;;;;;;66.15;49.35;;;;;;;27.98;100.00;97888.84;5037533;28;20045;-64
2022/03/18 11:27:24;;;;;;;70.60;51.30;;;;;;;27.95;100.00;97883.88;5028164;28;20073;-64
2022/03/18 11:30:18;;;;;;;63.22;51.35;;;;;;;27.96;100.00;97880.25;5028712;28;20575;-64
2022/03/18 11:33:09;;;;;;;72.00;54.15;;;;;;;27.96;100.00;97881.06;5033933;28;20053;-64
2022/03/18 11:35:58;;;;;;;68.13;51.90;;;;;;;27.95;100.00;97884.72;5018865;28;20558;-64
2022/03/18 11:38:55;;;;;;;73.25;53.45;;;;;;;27.91;100.00;97882.59;5038167;28;20539;-65
2022/03/18 11:41:53;;;;;;;70.28;52.58;;;;;;;27.87;100.00;97876.00;5037116;28;20049;-64
2022/03/18 11:44:49;;;;;;;68.35;50.80;;;;;;;27.85;100.00;97878.00;5036965;28;20184;-65
2022/03/18 11:47:40;;;;;;;71.47;49.40;;;;;;;27.85;100.00;97867.44;5034867;28;20119;-65
2022/03/18 11:50:43;;;;;;;65.97;51.33;;;;;;;27.83;100.00;97872.06;5016808;28;20140;-64
2022/03/18 11:54:03;;;;;;;70.82;51.63;;;;;;;27.82;100.00;97870.41;5008461;28;20057;-64
2022/03/18 11:56:54;;;;;;;78.95;52.65;;;;;;;27.77;100.00;97863.00;5009918;28;20075;-65
2022/03/18 11:59:50;;;;;;;69.47;52.28;;;;;;;27.71;100.00;97872.44;5047265;28;20095;-64
2022/03/18 12:02:45;;;;;;;73.10;52.78;;;;;;;27.72;100.00;97863.50;5042090;28;20064;-63
2022/03/18 12:05:22;;;;;;;69.25;51.22;;;;;;;27.74;100.00;97861.53;5029278;28;20159;-65
2022/03/18 12:08:16;;;;;;;72.73;52.57;;;;;;;27.76;100.00;97861.34;5031032;28;20159;-64
2022/03/18 12:10:54;;;;;;;78.68;52.47;;;;;;;27.69;100.00;97857.75;5040382;28;20820;-64
2022/03/18 12:13:43;;;;;;;75.80;51.75;;;;;;;27.68;100.00;97864.88;5035541;28;20075;-64
2022/03/18 12:16:31;;;;;;;70.30;51.15;;;;;;;27.59;100.00;97862.44;5033042;28;20048;-65
2022/03/18 12:19:47;;;;;;;71.88;50.95;;;;;;;27.54;100.00;97860.28;5024889;28;20050;-65
2022/03/18 12:22:31;;;;;;;69.35;53.15;;;;;;;27.51;100.00;97855.31;5039381;28;20045;-64
2022/03/18 12:25:22;;;;;;;72.68;53.28;;;;;;;27.58;100.00;97858.13;5028810;28;20461;-65
2022/03/18 12:28:09;;;;;;;70.95;53.75;;;;;;;27.62;100.00;97862.88;5027274;28;20377;-65
2022/03/18 12:31:14;;;;;;;69.88;53.25;;;;;;;27.67;100.00;97865.88;5028776;28;20049;-68
2022/03/18 12:34:09;;;;;;;72.15;53.95;;;;;;;27.66;100.00;97853.63;5021223;28;20103;-66
2022/03/18 12:36:50;;;;;;;75.68;53.42;;;;;;;27.65;100.00;97851.97;5026762;28;20055;-65
2022/03/18 12:39:39;;;;;;;71.70;53.92;;;;;;;27.62;100.00;97854.94;5011836;28;20053;-64
2022/03/18 12:42:28;;;;;;;77.88;55.60;;;;;;;27.60;100.00;97854.31;5031976;28;20139;-66
2022/03/18 12:45:17;;;;;;;78.85;53.83;;;;;;;27.61;100.00;97860.44;5032548;28;20089;-64
2022/03/18 12:48:01;;;;;;;82.47;55.83;;;;;;;27.62;100.00;97857.59;5019960;28;20068;-65
2022/03/18 12:50:57;;;;;;;79.70;57.42;;;;;;;27.58;100.00;97851.03;5028867;28;20488;-65
2022/03/18 12:53:46;;;;;;;83.50;58.83;;;;;;;27.55;100.00;97854.00;5025833;28;20056;-65
2022/03/18 12:56:55;;;;;;;81.68;58.65;;;;;;;27.55;100.00;97867.22;5024563;28;20049;-65
2022/03/18 12:59:50;;;;;;;77.88;57.53;;;;;;;27.50;100.00;97864.25;5037248;28;20061;-65
2022/03/18 13:02:58;;;;;;;77.85;57.42;;;;;;;27.48;100.00;97866.25;5024290;28;20071;-66
2022/03/18 13:05:54;;;;;;;78.63;56.15;;;;;;;27.47;100.00;97871.69;5025512;28;20072;-65
2022/03/18 13:08:32;;;;;;;81.28;58.58;;;;;;;27.47;100.00;97871.69;5022861;28;20053;-66
2022/03/18 13:11:21;;;;;;;82.43;57.15;;;;;;;27.45;100.00;97869.25;5023647;28;20038;-63